Time;durP1;ratioP1;P1;durP2;ratioP2;P2;SDS_P1;SDS_P2;PMS_P1;PMS_P2;Temp;Humidity;BMP_temperature;BMP_pressure;BME280_temperature;BME280_humidity;BME280_pressure;Samples;Min_cycle;Max_cycle;Signal;HPM_P1;HPM_P2
2023/05/28 00:01:50;;;;;;;;;;;19.60;53.40;;;;;;5137196;27;19919;-71
2023/05/28 00:04:16;;;;;;;;;;;19.60;53.40;;;;;;5137478;27;19926;-71
2023/05/28 00:06:41;;;;;;;;;;;19.60;53.40;;;;;;5155569;27;20281;-71
2023/05/28 00:09:07;;;;;;;;;;;19.60;53.40;;;;;;5137336;27;20018;-71
2023/05/28 00:11:33;;;;;;;;;;;19.60;53.40;;;;;;5136665;27;19926;-71
2023/05/28 00:13:58;;;;;;;;;;;19.60;53.40;;;;;;5136221;27;19930;-71
2023/05/28 00:16:25;;;;;;;;;;;19.60;53.40;;;;;;5135606;27;19923;-71
2023/05/28 00:18:50;;;;;;;;;;;19.60;53.40;;;;;;5136040;27;20416;-71
2023/05/28 00:21:16;;;;;;;;;;;19.60;53.40;;;;;;5136114;27;19927;-71
2023/05/28 00:23:41;;;;;;;;;;;19.60;53.40;;;;;;5136090;27;19926;-71
2023/05/28 00:26:07;;;;;;;;;;;19.50;53.40;;;;;;5136330;27;20038;-71
2023/05/28 00:28:32;;;;;;;;;;;19.50;53.40;;;;;;5136150;27;19919;-72
2023/05/28 00:30:58;;;;;;;;;;;19.50;53.40;;;;;;5154957;27;19978;-71
2023/05/28 00:33:23;;;;;;;;;;;19.50;53.40;;;;;;5155003;27;20290;-71
2023/05/28 00:35:54;;;;;;;;;;;19.50;53.40;;;;;;5136244;27;20000;-70
2023/05/28 00:38:20;;;;;;;;;;;19.50;53.40;;;;;;5136140;27;19969;-71
2023/05/28 00:40:45;;;;;;;;;;;19.50;53.40;;;;;;5136209;27;19958;-71
2023/05/28 00:43:11;;;;;;;;;;;19.50;53.30;;;;;;5154812;27;19966;-72
2023/05/28 00:45:36;;;;;;;;;;;19.50;53.30;;;;;;5136548;27;19922;-71
2023/05/28 00:48:02;;;;;;;;;;;19.50;53.40;;;;;;5135849;27;20350;-71
2023/05/28 00:50:28;;;;;;;;;;;19.50;53.30;;;;;;5136107;27;19926;-71
2023/05/28 00:52:54;;;;;;;;;;;19.50;53.40;;;;;;5153815;27;20335;-71
2023/05/28 00:55:20;;;;;;;;;;;19.50;53.30;;;;;;5154888;27;19930;-71
2023/05/28 00:57:46;;;;;;;;;;;19.50;53.30;;;;;;5136104;27;19919;-71
2023/05/28 01:00:13;;;;;;;;;;;19.40;53.30;;;;;;5135545;27;19941;-71
2023/05/28 01:02:39;;;;;;;;;;;19.50;53.30;;;;;;5153873;27;20281;-69
2023/05/28 01:05:05;;;;;;;;;;;19.40;53.20;;;;;;5135684;27;20018;-71
2023/05/28 01:07:31;;;;;;;;;;;19.40;53.20;;;;;;5135496;27;19962;-71
2023/05/28 01:09:57;;;;;;;;;;;19.40;53.30;;;;;;5153839;27;19966;-71
2023/05/28 01:12:23;;;;;;;;;;;19.40;53.20;;;;;;5153601;27;19973;-71
2023/05/28 01:14:49;;;;;;;;;;;19.40;53.20;;;;;;5135339;27;19926;-71
2023/05/28 01:17:15;;;;;;;;;;;19.40;53.20;;;;;;5153855;27;19919;-71
2023/05/28 01:19:42;;;;;;;;;;;19.40;53.20;;;;;;5135433;27;19926;-71
2023/05/28 01:22:08;;;;;;;;;;;19.40;54.00;;;;;;5135145;27;19919;-71
2023/05/28 01:24:35;;;;;;;;;;;19.40;53.20;;;;;;5135336;27;19923;-72
2023/05/28 01:27:01;;;;;;;;;;;19.40;53.20;;;;;;5134788;27;20377;-70
2023/05/28 01:29:27;;;;;;;;;;;19.40;53.20;;;;;;5135116;27;19919;-71
2023/05/28 01:31:52;;;;;;;;;;;19.40;53.30;;;;;;5153790;27;19988;-72
2023/05/28 01:34:18;;;;;;;;;;;19.40;53.30;;;;;;5131774;27;20394;-71
2023/05/28 01:36:51;;;;;;;;;;;19.40;53.20;;;;;;5131588;27;21287;-71
2023/05/28 01:39:19;;;;;;;;;;;19.30;53.20;;;;;;5132119;27;20002;-71
2023/05/28 01:41:45;;;;;;;;;;;19.30;53.20;;;;;;5132087;28;19920;-71
2023/05/28 01:44:12;;;;;;;;;;;19.30;53.20;;;;;;5131568;28;19923;-72
2023/05/28 01:46:39;;;;;;;;;;;19.30;53.20;;;;;;5131762;28;19954;-71
2023/05/28 01:49:04;;;;;;;;;;;19.30;53.20;;;;;;5131695;28;19930;-71
2023/05/28 01:51:31;;;;;;;;;;;19.30;53.20;;;;;;5131900;28;20006;-68
2023/05/28 01:53:56;;;;;;;;;;;19.30;53.20;;;;;;5133155;28;20012;-71
2023/05/28 01:56:22;;;;;;;;;;;19.30;53.20;;;;;;5131767;28;20018;-71
2023/05/28 01:58:47;;;;;;;;;;;19.30;53.20;;;;;;5131912;28;19919;-71
2023/05/28 02:01:28;;;;;;;;;;;19.30;53.20;;;;;;5131769;28;20014;-71
2023/05/28 02:03:55;;;;;;;;;;;19.30;53.20;;;;;;5132912;28;19919;-71
2023/05/28 02:06:20;;;;;;;;;;;19.30;53.20;;;;;;5133129;28;20003;-71
2023/05/28 02:08:46;;;;;;;;;;;19.20;53.10;;;;;;5131489;28;19947;-71
2023/05/28 02:11:11;;;;;;;;;;;19.20;53.10;;;;;;5141756;27;20418;-70
2023/05/28 02:13:39;;;;;;;;;;;19.30;53.10;;;;;;5152815;27;20013;-72
2023/05/28 02:16:05;;;;;;;;;;;19.20;53.10;;;;;;5152177;27;19976;-71
2023/05/28 02:18:31;;;;;;;;;;;19.20;53.10;;;;;;5152454;27;19947;-72
2023/05/28 02:20:57;;;;;;;;;;;19.20;53.00;;;;;;5153628;27;19919;-71
2023/05/28 02:23:23;;;;;;;;;;;19.20;53.00;;;;;;5152392;27;19919;-71
2023/05/28 02:25:48;;;;;;;;;;;19.20;53.10;;;;;;5151370;27;20362;-71
2023/05/28 02:28:14;;;;;;;;;;;19.20;53.20;;;;;;5151707;27;19919;-71
2023/05/28 02:30:39;;;;;;;;;;;19.20;53.00;;;;;;5151490;27;20048;-71
2023/05/28 02:33:05;;;;;;;;;;;19.20;53.00;;;;;;5151485;27;19919;-72
2023/05/28 02:35:31;;;;;;;;;;;19.20;53.00;;;;;;5151297;27;20013;-71
2023/05/28 02:37:56;;;;;;;;;;;19.20;53.10;;;;;;5153272;27;19926;-71
2023/05/28 02:40:22;;;;;;;;;;;19.20;53.00;;;;;;5157434;27;19919;-71
2023/05/28 02:42:47;;;;;;;;;;;19.20;53.00;;;;;;5155721;27;19919;-72
2023/05/28 02:45:13;;;;;;;;;;;19.20;53.00;;;;;;5155856;27;20301;-72
2023/05/28 02:47:39;;;;;;;;;;;19.10;53.00;;;;;;5156242;27;19927;-71
2023/05/28 02:50:05;;;;;;;;;;;19.20;53.00;;;;;;5157185;27;19919;-71
2023/05/28 02:52:30;;;;;;;;;;;19.20;53.00;;;;;;5157115;27;20017;-69
2023/05/28 02:54:55;;;;;;;;;;;19.20;53.00;;;;;;5155737;27;19943;-71
2023/05/28 02:57:21;;;;;;;;;;;19.10;53.00;;;;;;5157230;27;20290;-71
2023/05/28 02:59:47;;;;;;;;;;;19.20;53.00;;;;;;5155738;27;20408;-71
2023/05/28 03:02:12;;;;;;;;;;;19.10;53.00;;;;;;5156502;27;20013;-71
2023/05/28 03:04:38;;;;;;;;;;;19.10;53.00;;;;;;5155737;27;20366;-71
2023/05/28 03:07:03;;;;;;;;;;;19.10;53.00;;;;;;5155530;27;19923;-71
2023/05/28 03:09:29;;;;;;;;;;;19.10;53.00;;;;;;5155825;27;19927;-71
2023/05/28 03:11:55;;;;;;;;;;;19.10;53.00;;;;;;5138733;27;19926;-71
2023/05/28 03:14:20;;;;;;;;;;;19.10;53.00;;;;;;5135945;27;20417;-71
2023/05/28 03:16:45;;;;;;;;;;;19.10;53.00;;;;;;5134571;27;19935;-71
2023/05/28 03:19:11;;;;;;;;;;;19.10;53.00;;;;;;5135390;27;19920;-71
2023/05/28 03:21:36;;;;;;;;;;;19.10;53.00;;;;;;5133829;27;20320;-71
2023/05/28 03:24:02;;;;;;;;;;;19.10;53.00;;;;;;5134163;27;19919;-71
2023/05/28 03:26:27;;;;;;;;;;;19.10;53.00;;;;;;5135368;27;20406;-71
2023/05/28 03:28:53;;;;;;;;;;;19.10;53.00;;;;;;5134079;27;19919;-71
2023/05/28 03:31:19;;;;;;;;;;;19.10;53.00;;;;;;5133501;27;19919;-70
2023/05/28 03:33:45;;;;;;;;;;;19.10;53.00;;;;;;5136636;27;19973;-71
2023/05/28 03:36:10;;;;;;;;;;;19.10;53.00;;;;;;5155723;27;19923;-71
2023/05/28 03:38:36;;;;;;;;;;;19.00;53.00;;;;;;5155753;27;19919;-71
2023/05/28 03:41:01;;;;;;;;;;;19.10;53.00;;;;;;5138053;27;20247;-71
2023/05/28 03:43:27;;;;;;;;;;;19.00;53.00;;;;;;5137682;27;19923;-72
2023/05/28 03:45:52;;;;;;;;;;;19.10;53.10;;;;;;5156385;27;19943;-71
2023/05/28 03:48:18;;;;;;;;;;;19.00;53.00;;;;;;5155795;27;19971;-70
2023/05/28 03:50:43;;;;;;;;;;;19.00;53.70;;;;;;5155300;27;19919;-72
2023/05/28 03:53:09;;;;;;;;;;;19.00;53.00;;;;;;5136813;27;20275;-71
2023/05/28 03:55:38;;;;;;;;;;;19.00;53.00;;;;;;5155261;27;19930;-71
2023/05/28 03:58:03;;;;;;;;;;;19.00;53.00;;;;;;5155417;27;20005;-71
2023/05/28 04:00:29;;;;;;;;;;;19.00;53.00;;;;;;5137381;27;20410;-71
2023/05/28 04:02:55;;;;;;;;;;;19.00;53.00;;;;;;5136809;27;19919;-71
2023/05/28 04:05:20;;;;;;;;;;;19.00;53.00;;;;;;5136855;27;19942;-71
2023/05/28 04:07:49;;;;;;;;;;;19.00;53.00;;;;;;5136844;27;19919;-71
2023/05/28 04:10:15;;;;;;;;;;;19.00;53.00;;;;;;5138638;27;19991;-71
2023/05/28 04:12:40;;;;;;;;;;;19.00;53.00;;;;;;5157631;27;19972;-71
2023/05/28 04:15:07;;;;;;;;;;;19.00;53.00;;;;;;5157267;27;19923;-71
2023/05/28 04:17:32;;;;;;;;;;;19.00;53.00;;;;;;5157238;27;19926;-71
2023/05/28 04:19:58;;;;;;;;;;;19.00;53.00;;;;;;5157523;27;20006;-71
2023/05/28 04:22:23;;;;;;;;;;;19.00;53.00;;;;;;5157359;27;19969;-71
2023/05/28 04:24:51;;;;;;;;;;;19.00;53.00;;;;;;5157072;27;19982;-71
2023/05/28 04:27:17;;;;;;;;;;;19.00;53.00;;;;;;5176194;27;19961;-72
2023/05/28 04:29:43;;;;;;;;;;;19.00;53.00;;;;;;5175370;27;19961;-71
2023/05/28 04:32:09;;;;;;;;;;;19.00;53.00;;;;;;5176107;27;20392;-71
2023/05/28 04:34:35;;;;;;;;;;;19.00;53.00;;;;;;5175962;27;19974;-71
2023/05/28 04:37:00;;;;;;;;;;;18.90;52.90;;;;;;5175548;27;19930;-71
2023/05/28 04:39:26;;;;;;;;;;;18.90;53.00;;;;;;5175462;27;19919;-71
2023/05/28 04:41:53;;;;;;;;;;;18.90;53.70;;;;;;5175800;27;19969;-72
2023/05/28 04:44:19;;;;;;;;;;;18.90;53.00;;;;;;5157003;27;19929;-71
2023/05/28 04:46:45;;;;;;;;;;;18.90;53.00;;;;;;5156683;27;20005;-71
2023/05/28 04:49:12;;;;;;;;;;;18.90;53.00;;;;;;5156266;27;19918;-71
2023/05/28 04:51:38;;;;;;;;;;;18.90;53.00;;;;;;5171854;27;19919;-71
2023/05/28 04:54:03;;;;;;;;;;;18.90;53.00;;;;;;5154260;27;19926;-71
2023/05/28 04:56:29;;;;;;;;;;;18.90;53.00;;;;;;5135696;27;19923;-71
2023/05/28 04:58:55;;;;;;;;;;;18.90;53.00;;;;;;5154201;27;19935;-71
2023/05/28 05:01:22;;;;;;;;;;;18.90;53.00;;;;;;5135286;27;20027;-72
2023/05/28 05:03:50;;;;;;;;;;;18.90;53.10;;;;;;5135849;27;19944;-71
2023/05/28 05:06:16;;;;;;;;;;;18.90;53.00;;;;;;5135358;27;20378;-71
2023/05/28 05:08:41;;;;;;;;;;;18.90;53.00;;;;;;5153853;27;19925;-71
2023/05/28 05:11:08;;;;;;;;;;;18.90;53.10;;;;;;5135475;27;20226;-71
2023/05/28 05:13:33;;;;;;;;;;;18.90;53.10;;;;;;5135754;27;19925;-71
2023/05/28 05:15:59;;;;;;;;;;;18.90;53.10;;;;;;5154230;27;20009;-71
2023/05/28 05:18:24;;;;;;;;;;;18.90;53.10;;;;;;5136137;27;19923;-71
2023/05/28 05:20:50;;;;;;;;;;;18.90;53.10;;;;;;5154362;27;19919;-71
2023/05/28 05:23:15;;;;;;;;;;;18.90;53.10;;;;;;5135174;27;19944;-71
2023/05/28 05:25:43;;;;;;;;;;;18.90;53.10;;;;;;5135652;27;19941;-72
2023/05/28 05:28:09;;;;;;;;;;;18.90;53.10;;;;;;5134916;27;19922;-71
2023/05/28 05:30:34;;;;;;;;;;;18.90;53.10;;;;;;5135245;27;19947;-72
2023/05/28 05:33:00;;;;;;;;;;;18.80;53.10;;;;;;5135507;27;20562;-71
2023/05/28 05:35:25;;;;;;;;;;;18.80;53.10;;;;;;5153833;27;19923;-71
2023/05/28 05:37:51;;;;;;;;;;;18.90;53.20;;;;;;5135747;27;19967;-71
2023/05/28 05:40:16;;;;;;;;;;;18.80;53.20;;;;;;5135602;27;20290;-72
2023/05/28 05:42:42;;;;;;;;;;;18.90;53.20;;;;;;5135358;27;20017;-72
2023/05/28 05:45:09;;;;;;;;;;;18.80;53.10;;;;;;5153643;27;20373;-71
2023/05/28 05:47:35;;;;;;;;;;;18.80;53.20;;;;;;5135107;27;19918;-71
2023/05/28 05:50:00;;;;;;;;;;;18.80;53.20;;;;;;5134526;27;20491;-71
2023/05/28 05:52:26;;;;;;;;;;;18.90;53.20;;;;;;5135248;27;19928;-71
2023/05/28 05:54:51;;;;;;;;;;;18.80;53.20;;;;;;5135149;27;19923;-72
2023/05/28 05:57:17;;;;;;;;;;;18.80;53.20;;;;;;5134596;27;20442;-71
2023/05/28 05:59:43;;;;;;;;;;;18.90;53.20;;;;;;5135533;27;19942;-71
2023/05/28 06:02:08;;;;;;;;;;;18.90;53.20;;;;;;5154069;27;19923;-72
2023/05/28 06:04:34;;;;;;;;;;;18.80;53.10;;;;;;5134908;27;20017;-71
2023/05/28 06:07:03;;;;;;;;;;;18.90;53.20;;;;;;5135051;27;19926;-71
2023/05/28 06:09:29;;;;;;;;;;;18.80;53.10;;;;;;5134435;27;20305;-72
2023/05/28 06:11:55;;;;;;;;;;;18.80;53.20;;;;;;5135140;27;20026;-72
2023/05/28 06:14:21;;;;;;;;;;;18.90;53.20;;;;;;5139326;27;19919;-71
2023/05/28 06:16:46;;;;;;;;;;;18.90;53.20;;;;;;5157100;27;19958;-72
2023/05/28 06:19:12;;;;;;;;;;;18.90;53.20;;;;;;5138986;27;19919;-71
2023/05/28 06:21:37;;;;;;;;;;;18.90;53.20;;;;;;5139314;27;19920;-71
2023/05/28 06:24:03;;;;;;;;;;;18.80;53.20;;;;;;5138889;27;19926;-72
2023/05/28 06:26:28;;;;;;;;;;;18.90;53.20;;;;;;5138732;27;20394;-71
2023/05/28 06:28:54;;;;;;;;;;;18.90;53.20;;;;;;5157005;27;19918;-71
2023/05/28 06:31:20;;;;;;;;;;;18.80;53.20;;;;;;5138673;27;19919;-71
2023/05/28 06:33:46;;;;;;;;;;;18.90;53.20;;;;;;5138369;27;20017;-71
2023/05/28 06:36:12;;;;;;;;;;;18.90;53.20;;;;;;5137936;27;20002;-71
2023/05/28 06:38:37;;;;;;;;;;;18.90;53.20;;;;;;5138609;27;20335;-71
2023/05/28 06:41:03;;;;;;;;;;;18.90;53.20;;;;;;5138940;27;19923;-71
2023/05/28 06:43:29;;;;;;;;;;;18.90;53.20;;;;;;5156839;27;19930;-71
2023/05/28 06:45:54;;;;;;;;;;;18.90;53.30;;;;;;5138192;27;19959;-70
2023/05/28 06:48:20;;;;;;;;;;;18.90;53.30;;;;;;5138208;27;20017;-70
2023/05/28 06:50:46;;;;;;;;;;;18.90;53.30;;;;;;5138291;27;20293;-70
2023/05/28 06:53:11;;;;;;;;;;;18.90;53.30;;;;;;5138273;27;19919;-71
2023/05/28 06:55:37;;;;;;;;;;;18.90;53.30;;;;;;5138310;27;19923;-71
2023/05/28 06:58:02;;;;;;;;;;;18.90;53.30;;;;;;5138732;27;20016;-71
2023/05/28 07:00:28;;;;;;;;;;;18.90;53.30;;;;;;5138304;27;20278;-71
2023/05/28 07:02:53;;;;;;;;;;;18.90;53.20;;;;;;5157016;27;20115;-71
2023/05/28 07:05:19;;;;;;;;;;;18.90;53.20;;;;;;5138500;27;19962;-71
2023/05/28 07:07:44;;;;;;;;;;;18.90;53.20;;;;;;5138628;27;19988;-71
2023/05/28 07:10:10;;;;;;;;;;;18.90;53.20;;;;;;5158425;27;19919;-71
2023/05/28 07:12:35;;;;;;;;;;;18.90;53.20;;;;;;5159187;27;20025;-71
2023/05/28 07:15:02;;;;;;;;;;;18.90;53.20;;;;;;5159100;27;19930;-71
2023/05/28 07:17:27;;;;;;;;;;;18.90;53.20;;;;;;5159123;27;20353;-71
2023/05/28 07:19:53;;;;;;;;;;;18.90;53.20;;;;;;5177324;27;19965;-70
2023/05/28 07:22:18;;;;;;;;;;;18.90;53.20;;;;;;5159012;27;19971;-71
2023/05/28 07:24:44;;;;;;;;;;;18.90;53.20;;;;;;5158443;27;19919;-71
2023/05/28 07:27:09;;;;;;;;;;;18.90;53.20;;;;;;5158882;27;19919;-72
2023/05/28 07:29:35;;;;;;;;;;;18.90;53.30;;;;;;5158708;27;19919;-71
2023/05/28 07:32:01;;;;;;;;;;;19.00;53.40;;;;;;5158445;27;19923;-71
2023/05/28 07:34:26;;;;;;;;;;;18.90;53.30;;;;;;5157379;27;20369;-69
2023/05/28 07:36:52;;;;;;;;;;;18.90;53.20;;;;;;5175847;27;19927;-71
2023/05/28 07:39:17;;;;;;;;;;;18.90;53.20;;;;;;5157746;27;19961;-71
2023/05/28 07:41:43;;;;;;;;;;;18.90;53.20;;;;;;5176698;27;19918;-71
2023/05/28 07:44:08;;;;;;;;;;;18.90;53.30;;;;;;5157771;27;19977;-71
2023/05/28 07:46:34;;;;;;;;;;;19.00;53.30;;;;;;5158174;27;19919;-71
2023/05/28 07:48:59;;;;;;;;;;;19.00;53.30;;;;;;5176349;27;20025;-70
2023/05/28 07:51:26;;;;;;;;;;;19.00;53.30;;;;;;5158417;27;20374;-71
2023/05/28 07:53:52;;;;;;;;;;;19.00;53.20;;;;;;5176487;27;19918;-71
2023/05/28 07:56:17;;;;;;;;;;;18.90;53.20;;;;;;5158047;27;20377;-71
2023/05/28 07:58:43;;;;;;;;;;;19.00;53.20;;;;;;5158344;27;19930;-71
2023/05/28 08:01:10;;;;;;;;;;;19.00;53.20;;;;;;5157914;27;19927;-71
2023/05/28 08:03:38;;;;;;;;;;;19.00;53.20;;;;;;5157464;27;19919;-72
2023/05/28 08:06:04;;;;;;;;;;;18.90;53.20;;;;;;5157634;27;19925;-67
2023/05/28 08:08:30;;;;;;;;;;;19.00;53.10;;;;;;5157329;27;19919;-71
2023/05/28 08:10:55;;;;;;;;;;;19.00;53.10;;;;;;5149662;27;20294;-71
2023/05/28 08:13:21;;;;;;;;;;;19.00;53.10;;;;;;5155216;27;19964;-68
2023/05/28 08:15:47;;;;;;;;;;;18.90;53.10;;;;;;5154884;27;19927;-71
2023/05/28 08:18:12;;;;;;;;;;;19.00;53.20;;;;;;5136799;27;19930;-71
2023/05/28 08:20:39;;;;;;;;;;;19.00;53.20;;;;;;5154918;27;19927;-71
2023/05/28 08:23:04;;;;;;;;;;;19.00;53.20;;;;;;5154363;27;19923;-71
2023/05/28 08:25:30;;;;;;;;;;;19.00;53.20;;;;;;5154899;27;19963;-71
2023/05/28 08:27:55;;;;;;;;;;;19.00;53.30;;;;;;5136108;27;20293;-71
2023/05/28 08:30:21;;;;;;;;;;;19.00;53.30;;;;;;5136537;27;19942;-71
2023/05/28 08:32:47;;;;;;;;;;;19.00;53.30;;;;;;5136240;27;19967;-71
2023/05/28 08:35:12;;;;;;;;;;;19.00;53.40;;;;;;5153338;27;19923;-71
2023/05/28 08:37:38;;;;;;;;;;;19.00;53.30;;;;;;5154560;27;19930;-72
2023/05/28 08:40:08;;;;;;;;;;;19.00;53.20;;;;;;5136192;27;20294;-71
2023/05/28 08:42:33;;;;;;;;;;;19.00;53.10;;;;;;5154567;27;19966;-71
2023/05/28 08:44:59;;;;;;;;;;;19.00;53.10;;;;;;5136202;27;19980;-71
2023/05/28 08:47:25;;;;;;;;;;;19.00;53.10;;;;;;5136399;27;19919;-71
2023/05/28 08:49:52;;;;;;;;;;;19.10;53.20;;;;;;5154858;27;19919;-71
2023/05/28 08:52:19;;;;;;;;;;;19.00;53.10;;;;;;5136503;27;19919;-71
2023/05/28 08:54:45;;;;;;;;;;;19.00;53.10;;;;;;5154278;27;20282;-70
2023/05/28 08:57:11;;;;;;;;;;;19.00;53.10;;;;;;5135546;27;20417;-71
2023/05/28 08:59:36;;;;;;;;;;;19.10;53.10;;;;;;5135948;27;19979;-71
2023/05/28 09:02:03;;;;;;;;;;;19.10;53.10;;;;;;5136383;27;19926;-71
2023/05/28 09:04:28;;;;;;;;;;;19.10;53.20;;;;;;5136269;27;20328;-72
2023/05/28 09:06:54;;;;;;;;;;;19.10;53.90;;;;;;5154546;27;19949;-71
2023/05/28 09:09:20;;;;;;;;;;;19.20;53.10;;;;;;5136201;27;20009;-71
2023/05/28 09:11:45;;;;;;;;;;;19.20;53.00;;;;;;5151126;27;19970;-71
2023/05/28 09:14:13;;;;;;;;;;;19.20;53.00;;;;;;5156426;27;20018;-71
2023/05/28 09:16:40;;;;;;;;;;;19.20;52.90;;;;;;5156310;27;19970;-72
2023/05/28 09:19:06;;;;;;;;;;;19.20;52.90;;;;;;5155834;27;19952;-71
2023/05/28 09:21:32;;;;;;;;;;;19.30;53.00;;;;;;5175154;27;19982;-71
2023/05/28 09:24:00;;;;;;;;;;;19.20;52.90;;;;;;5175135;27;19926;-71
2023/05/28 09:26:33;;;;;;;;;;;19.30;52.80;;;;;;5175084;27;19918;-71
2023/05/28 09:28:58;;;;;;;;;;;19.30;52.80;;;;;;5156727;27;19918;-71
2023/05/28 09:31:28;;;;;;;;;;;19.30;52.70;;;;;;5175101;27;19919;-71
2023/05/28 09:33:54;;;;;;;;;;;19.30;52.60;;;;;;5156375;27;19937;-71
2023/05/28 09:36:20;;;;;;;;;;;19.30;52.60;;;;;;5155796;27;19923;-71
2023/05/28 09:38:45;;;;;;;;;;;19.30;52.60;;;;;;5174115;27;20050;-68
2023/05/28 09:41:33;;;;;;;;;;;19.30;52.50;;;;;;5155468;27;19963;-71
2023/05/28 09:44:00;;;;;;;;;;;19.40;52.60;;;;;;5174403;27;20009;-71
2023/05/28 09:46:26;;;;;;;;;;;19.40;52.50;;;;;;5155817;27;19950;-71
2023/05/28 09:48:52;;;;;;;;;;;19.40;52.60;;;;;;5155616;27;19919;-71
2023/05/28 09:51:18;;;;;;;;;;;19.40;52.50;;;;;;5174223;27;19979;-71
2023/05/28 09:53:45;;;;;;;;;;;19.40;52.60;;;;;;5155924;27;19926;-71
2023/05/28 09:56:11;;;;;;;;;;;19.40;52.60;;;;;;5155239;27;20018;-70
2023/05/28 09:58:37;;;;;;;;;;;19.40;52.50;;;;;;5134648;27;19970;-71
2023/05/28 10:01:07;;;;;;;;;;;19.40;52.50;;;;;;5153165;27;19955;-71
2023/05/28 10:06:15;;;;;;;;;;;19.40;52.50;;;;;;5089401;28;19916;-71
2023/05/28 10:08:42;;;;;;;;;;;19.40;52.50;;;;;;5087952;28;20441;-71
2023/05/28 10:11:09;;;;;;;;;;;19.50;52.60;;;;;;5088294;28;19964;-70
2023/05/28 10:13:34;;;;;;;;;;;19.50;52.60;;;;;;5088031;28;19924;-71
2023/05/28 10:16:00;;;;;;;;;;;19.50;52.60;;;;;;5088707;28;20015;-71
2023/05/28 10:18:27;;;;;;;;;;;19.50;52.50;;;;;;5088412;28;19974;-71
2023/05/28 10:20:53;;;;;;;;;;;19.40;53.20;;;;;;5088137;28;19927;-70
2023/05/28 10:23:19;;;;;;;;;;;19.50;52.60;;;;;;5087828;28;20019;-72
2023/05/28 10:25:45;;;;;;;;;;;19.50;52.50;;;;;;5088615;28;19928;-71
2023/05/28 10:28:14;;;;;;;;;;;19.50;52.50;;;;;;5088025;28;19928;-71
2023/05/28 10:30:39;;;;;;;;;;;19.50;52.60;;;;;;5089304;28;19929;-71
2023/05/28 10:33:07;;;;;;;;;;;19.50;52.50;;;;;;5087882;28;19954;-71
2023/05/28 10:35:34;;;;;;;;;;;19.50;52.60;;;;;;5088077;28;20380;-71
2023/05/28 10:38:03;;;;;;;;;;;19.50;52.60;;;;;;5088300;28;20007;-71
2023/05/28 10:40:29;;;;;;;;;;;19.50;52.60;;;;;;5088065;28;19921;-72
2023/05/28 10:42:54;;;;;;;;;;;19.50;52.60;;;;;;5087560;28;20283;-71
2023/05/28 10:45:33;;;;;;;;;;;19.50;52.60;;;;;;5088092;28;19924;-71
2023/05/28 10:47:59;;;;;;;;;;;19.50;52.60;;;;;;5087578;28;19972;-71
2023/05/28 10:50:24;;;;;;;;;;;19.40;52.50;;;;;;5087897;28;20017;-71
2023/05/28 10:53:11;;;;;;;;;;;19.50;52.60;;;;;;5088881;28;19920;-71
2023/05/28 10:55:53;;;;;;;;;;;19.50;52.60;;;;;;5087985;28;20273;-71
2023/05/28 10:58:26;;;;;;;;;;;19.50;52.60;;;;;;5087787;28;19948;-71
2023/05/28 11:00:56;;;;;;;;;;;19.50;52.60;;;;;;5087663;28;19921;-71
2023/05/28 11:03:37;;;;;;;;;;;19.50;52.60;;;;;;5087273;28;19924;-71
2023/05/28 11:06:04;;;;;;;;;;;19.50;52.60;;;;;;5107223;28;19924;-71
2023/05/28 11:08:29;;;;;;;;;;;19.50;52.60;;;;;;5089589;28;19938;-71
2023/05/28 11:10:55;;;;;;;;;;;19.40;52.60;;;;;;5089952;28;20459;-68
2023/05/28 11:13:21;;;;;;;;;;;19.50;52.60;;;;;;5108640;28;19927;-72
2023/05/28 11:15:47;;;;;;;;;;;19.50;52.60;;;;;;5086870;28;19920;-71
2023/05/28 11:18:12;;;;;;;;;;;19.50;52.60;;;;;;5094026;28;19959;-71
2023/05/28 11:20:38;;;;;;;;;;;19.50;52.60;;;;;;5094010;28;20291;-71
2023/05/28 11:23:13;;;;;;;;;;;19.50;52.60;;;;;;5094120;28;19920;-71
2023/05/28 11:25:41;;;;;;;;;;;19.40;52.60;;;;;;5093379;28;19924;-70
2023/05/28 11:28:07;;;;;;;;;;;19.50;52.60;;;;;;5076717;28;20394;-71
2023/05/28 11:30:32;;;;;;;;;;;19.50;52.60;;;;;;5076628;28;20011;-71
2023/05/28 11:33:01;;;;;;;;;;;19.50;53.40;;;;;;5095159;28;19920;-71
2023/05/28 11:35:26;;;;;;;;;;;19.50;52.60;;;;;;5076576;28;20287;-71
2023/05/28 11:37:53;;;;;;;;;;;19.50;52.60;;;;;;5076684;28;19920;-71
2023/05/28 11:40:18;;;;;;;;;;;19.50;52.60;;;;;;5094739;28;20381;-71
2023/05/28 11:42:44;;;;;;;;;;;19.50;52.60;;;;;;5093921;28;19920;-71
2023/05/28 11:45:11;;;;;;;;;;;19.50;52.60;;;;;;5076511;28;20015;-71
2023/05/28 11:47:37;;;;;;;;;;;19.50;52.60;;;;;;5093387;28;19920;-71
2023/05/28 11:50:06;;;;;;;;;;;19.50;52.60;;;;;;5094540;28;20178;-71
2023/05/28 11:52:31;;;;;;;;;;;19.40;52.60;;;;;;5094737;28;20014;-71
2023/05/28 11:54:58;;;;;;;;;;;19.50;52.60;;;;;;5094153;28;20159;-71
2023/05/28 11:57:25;;;;;;;;;;;19.50;52.60;;;;;;5094582;28;19920;-72
2023/05/28 11:59:59;;;;;;;;;;;19.50;52.60;;;;;;5076436;28;19927;-71
2023/05/28 12:02:25;;;;;;;;;;;19.50;52.60;;;;;;5076598;28;20384;-71
2023/05/28 12:04:59;;;;;;;;;;;19.50;52.60;;;;;;5072555;28;19928;-71
2023/05/28 12:07:29;;;;;;;;;;;19.50;52.60;;;;;;5072753;28;19978;-71
2023/05/28 12:10:10;;;;;;;;;;;19.50;52.60;;;;;;5072659;28;19932;-71
2023/05/28 12:12:41;;;;;;;;;;;19.50;52.60;;;;;;5052674;28;19983;-71
2023/05/28 12:15:06;;;;;;;;;;;19.50;52.60;;;;;;5051908;28;19925;-71
2023/05/28 12:17:37;;;;;;;;;;;19.50;52.50;;;;;;5051873;28;19927;-73
2023/05/28 12:20:04;;;;;;;;;;;19.50;52.50;;;;;;5051509;28;19921;-71
2023/05/28 12:22:30;;;;;;;;;;;19.50;52.50;;;;;;5051947;28;20415;-71
2023/05/28 12:24:55;;;;;;;;;;;19.50;52.40;;;;;;5068438;28;19925;-72
2023/05/28 12:27:21;;;;;;;;;;;19.50;52.50;;;;;;5051221;28;20388;-72
2023/05/28 12:29:46;;;;;;;;;;;19.50;52.40;;;;;;5051991;28;20259;-71
2023/05/28 12:32:12;;;;;;;;;;;19.50;52.40;;;;;;5053571;28;19927;-71
2023/05/28 12:34:37;;;;;;;;;;;19.50;52.40;;;;;;5068738;28;19920;-71
2023/05/28 12:37:03;;;;;;;;;;;19.50;52.30;;;;;;5052047;28;19943;-71
2023/05/28 12:39:29;;;;;;;;;;;19.60;52.40;;;;;;5050888;28;20290;-69
2023/05/28 12:41:55;;;;;;;;;;;19.50;52.30;;;;;;5052677;28;19928;-72
2023/05/28 12:44:20;;;;;;;;;;;19.50;52.30;;;;;;5051150;28;19968;-72
2023/05/28 12:46:46;;;;;;;;;;;19.60;52.40;;;;;;5051649;28;20330;-71
2023/05/28 12:49:12;;;;;;;;;;;19.50;52.30;;;;;;5052878;28;20376;-71
2023/05/28 12:51:38;;;;;;;;;;;19.60;52.30;;;;;;5051421;28;20023;-71
2023/05/28 12:54:05;;;;;;;;;;;19.60;52.20;;;;;;5051829;28;20319;-71
2023/05/28 12:56:31;;;;;;;;;;;19.50;52.10;;;;;;5051451;28;20375;-71
2023/05/28 12:58:57;;;;;;;;;;;19.60;52.10;;;;;;5051315;28;19960;-71
2023/05/28 13:01:23;;;;;;;;;;;19.60;52.10;;;;;;5051385;28;19963;-71
2023/05/28 13:03:49;;;;;;;;;;;19.60;52.10;;;;;;5052480;28;19991;-70
2023/05/28 13:06:15;;;;;;;;;;;19.60;52.10;;;;;;5070945;28;19928;-72
2023/05/28 13:08:41;;;;;;;;;;;19.60;52.00;;;;;;5072603;28;19982;-71
2023/05/28 13:11:06;;;;;;;;;;;19.60;52.00;;;;;;5074486;28;19928;-72
2023/05/28 13:13:32;;;;;;;;;;;19.60;52.00;;;;;;5091264;28;20332;-71
2023/05/28 13:15:57;;;;;;;;;;;19.60;52.00;;;;;;5092677;28;19920;-71
2023/05/28 13:18:23;;;;;;;;;;;19.70;52.00;;;;;;5092589;28;19927;-71
2023/05/28 13:20:48;;;;;;;;;;;19.60;51.90;;;;;;5074022;28;20242;-71
2023/05/28 13:23:14;;;;;;;;;;;19.70;51.90;;;;;;5074188;28;19920;-71
2023/05/28 13:25:39;;;;;;;;;;;19.70;51.90;;;;;;5090761;28;19943;-72
2023/05/28 13:28:05;;;;;;;;;;;19.70;51.90;;;;;;5091452;28;19928;-71
2023/05/28 13:30:30;;;;;;;;;;;19.70;51.90;;;;;;5092270;28;20459;-71
2023/05/28 13:32:56;;;;;;;;;;;19.70;51.90;;;;;;5073888;28;20405;-72
2023/05/28 13:35:21;;;;;;;;;;;19.70;51.80;;;;;;5092327;28;19924;-71
2023/05/28 13:37:47;;;;;;;;;;;19.70;51.80;;;;;;5074356;28;19971;-71
2023/05/28 13:40:13;;;;;;;;;;;19.70;51.80;;;;;;5073845;28;20485;-71
2023/05/28 13:42:39;;;;;;;;;;;19.70;51.80;;;;;;5074463;28;19926;-72
2023/05/28 13:45:05;;;;;;;;;;;19.70;51.70;;;;;;5092157;28;19928;-72
2023/05/28 13:47:31;;;;;;;;;;;19.70;51.70;;;;;;5057747;28;19963;-71
2023/05/28 13:49:56;;;;;;;;;;;19.70;51.70;;;;;;5074503;28;20348;-71
2023/05/28 13:52:23;;;;;;;;;;;19.70;51.70;;;;;;5092079;28;20014;-71
2023/05/28 13:54:48;;;;;;;;;;;19.80;51.70;;;;;;5073913;28;19999;-71
2023/05/28 13:57:14;;;;;;;;;;;19.80;51.60;;;;;;5092171;28;20007;-71
2023/05/28 13:59:39;;;;;;;;;;;19.80;51.60;;;;;;5074680;28;19920;-69
2023/05/28 14:02:05;;;;;;;;;;;19.80;51.60;;;;;;5074376;28;20363;-71
2023/05/28 14:04:31;;;;;;;;;;;19.80;51.60;;;;;;5091931;28;19974;-71
2023/05/28 14:06:56;;;;;;;;;;;19.80;51.60;;;;;;5074519;28;20314;-71
2023/05/28 14:09:21;;;;;;;;;;;19.80;51.50;;;;;;5090410;28;19920;-72
2023/05/28 14:11:47;;;;;;;;;;;19.80;51.50;;;;;;5092018;28;19938;-72
2023/05/28 14:14:13;;;;;;;;;;;19.80;51.50;;;;;;5074254;28;19927;-71